Time;durP1;ratioP1;P1;durP2;ratioP2;P2;SDS_P1;SDS_P2;PMS_P1;PMS_P2;Temp;Humidity;BMP_temperature;BMP_pressure;BME280_temperature;BME280_humidity;BME280_pressure;Samples;Min_cycle;Max_cycle;Signal;HPM_P1;HPM_P2
2022/03/26 00:00:22;;;;;;;;;;;22.80;26.40;;;;;;4835712;29;20239;-61
2022/03/26 00:02:50;;;;;;;;;;;22.80;26.40;;;;;;4850233;29;19932;-61
2022/03/26 00:05:18;;;;;;;;;;;22.80;26.40;;;;;;4835754;29;19932;-62
2022/03/26 00:07:45;;;;;;;;;;;22.80;26.40;;;;;;4836848;29;20433;-61
2022/03/26 00:10:12;;;;;;;;;;;22.80;26.40;;;;;;4836108;29;19935;-62
2022/03/26 00:12:40;;;;;;;;;;;22.80;26.40;;;;;;4836213;29;20615;-61
2022/03/26 00:15:12;;;;;;;;;;;22.80;26.40;;;;;;4849614;29;20011;-62
2022/03/26 00:17:39;;;;;;;;;;;22.80;26.40;;;;;;4835389;29;19960;-62
2022/03/26 00:20:06;;;;;;;;;;;22.80;26.50;;;;;;4837720;29;19981;-63
2022/03/26 00:22:33;;;;;;;;;;;22.80;26.40;;;;;;4836681;29;20023;-61
2022/03/26 00:25:01;;;;;;;;;;;22.80;26.40;;;;;;4839694;29;19975;-61
2022/03/26 00:27:28;;;;;;;;;;;22.80;26.50;;;;;;4839238;29;20044;-61
2022/03/26 00:29:55;;;;;;;;;;;22.70;26.40;;;;;;4839541;29;20023;-63
2022/03/26 00:32:22;;;;;;;;;;;22.80;26.50;;;;;;4839967;29;20302;-61
2022/03/26 00:34:49;;;;;;;;;;;22.70;26.40;;;;;;4839008;29;19928;-61
2022/03/26 00:37:16;;;;;;;;;;;22.70;26.40;;;;;;4838941;29;19928;-62
2022/03/26 00:39:43;;;;;;;;;;;22.70;26.70;;;;;;4839499;29;20019;-61
2022/03/26 00:42:10;;;;;;;;;;;22.70;26.50;;;;;;4838713;29;20430;-65
2022/03/26 00:44:37;;;;;;;;;;;22.70;26.50;;;;;;4839534;29;19979;-62
2022/03/26 00:47:04;;;;;;;;;;;22.70;26.50;;;;;;4838601;29;20457;-62
2022/03/26 00:49:31;;;;;;;;;;;22.70;26.50;;;;;;4839566;29;20457;-61
2022/03/26 00:51:58;;;;;;;;;;;22.70;26.50;;;;;;4837259;29;20027;-61
2022/03/26 00:54:25;;;;;;;;;;;22.70;26.50;;;;;;4836623;29;20031;-61
2022/03/26 00:56:52;;;;;;;;;;;22.70;26.50;;;;;;4839150;29;19941;-61
2022/03/26 00:59:19;;;;;;;;;;;22.70;26.50;;;;;;4838614;29;20019;-62
2022/03/26 01:01:46;;;;;;;;;;;22.70;26.50;;;;;;4839158;29;20493;-61
2022/03/26 01:04:13;;;;;;;;;;;22.70;26.50;;;;;;4839032;29;19929;-64
2022/03/26 01:06:40;;;;;;;;;;;22.60;26.50;;;;;;4838129;29;20020;-62
2022/03/26 01:09:07;;;;;;;;;;;22.60;26.50;;;;;;4838787;29;19936;-62
2022/03/26 01:11:34;;;;;;;;;;;22.70;26.50;;;;;;4838824;29;19967;-62
2022/03/26 01:14:01;;;;;;;;;;;22.60;26.50;;;;;;4839341;29;19929;-62
2022/03/26 01:16:28;;;;;;;;;;;22.70;26.60;;;;;;4838779;29;20347;-61
2022/03/26 01:18:56;;;;;;;;;;;22.70;26.60;;;;;;4839239;29;19991;-62
2022/03/26 01:21:23;;;;;;;;;;;22.60;26.50;;;;;;4838895;29;19964;-62
2022/03/26 01:23:50;;;;;;;;;;;22.60;26.50;;;;;;4834609;29;19929;-62
2022/03/26 01:26:17;;;;;;;;;;;22.60;26.50;;;;;;4838396;29;19940;-65
2022/03/26 01:28:45;;;;;;;;;;;22.70;26.50;;;;;;4837989;29;19953;-61
2022/03/26 01:31:12;;;;;;;;;;;22.60;26.50;;;;;;4837965;29;19962;-61
2022/03/26 01:33:39;;;;;;;;;;;22.60;26.50;;;;;;4838654;29;20387;-62
2022/03/26 01:36:07;;;;;;;;;;;22.60;26.50;;;;;;4838812;29;20285;-62
2022/03/26 01:38:34;;;;;;;;;;;22.60;26.50;;;;;;4838265;29;19986;-61
2022/03/26 01:41:01;;;;;;;;;;;22.70;26.50;;;;;;4837939;29;20023;-61
2022/03/26 01:43:27;;;;;;;;;;;22.60;26.50;;;;;;4839006;29;19929;-62
2022/03/26 01:45:54;;;;;;;;;;;22.60;26.50;;;;;;4838475;29;19932;-61
2022/03/26 01:48:21;;;;;;;;;;;22.60;26.50;;;;;;4838225;29;19929;-62
2022/03/26 01:50:48;;;;;;;;;;;22.60;26.50;;;;;;4838210;29;19928;-61
2022/03/26 01:53:16;;;;;;;;;;;22.60;26.50;;;;;;4837910;29;19968;-61
2022/03/26 01:55:43;;;;;;;;;;;22.60;26.50;;;;;;4833702;29;19937;-61
2022/03/26 01:58:10;;;;;;;;;;;22.60;26.50;;;;;;4837765;29;20541;-61
2022/03/26 02:00:37;;;;;;;;;;;22.60;26.50;;;;;;4837980;29;20213;-62
2022/03/26 02:03:04;;;;;;;;;;;22.50;26.50;;;;;;4838161;29;19933;-61
2022/03/26 02:05:31;;;;;;;;;;;22.60;26.50;;;;;;4837712;29;19928;-61
2022/03/26 02:07:58;;;;;;;;;;;22.60;26.50;;;;;;4837742;29;20120;-61
2022/03/26 02:10:25;;;;;;;;;;;22.50;26.50;;;;;;4837774;29;20267;-62
2022/03/26 02:12:52;;;;;;;;;;;22.50;26.50;;;;;;4851675;29;19940;-62
2022/03/26 02:15:19;;;;;;;;;;;22.50;26.50;;;;;;4837766;29;19928;-61
2022/03/26 02:17:46;;;;;;;;;;;22.50;26.50;;;;;;4837271;29;20410;-61
2022/03/26 02:20:14;;;;;;;;;;;22.50;26.50;;;;;;4837660;29;20015;-62
2022/03/26 02:22:41;;;;;;;;;;;22.50;26.50;;;;;;4837492;29;19929;-61
2022/03/26 02:25:09;;;;;;;;;;;22.50;26.50;;;;;;4837477;29;19998;-61
2022/03/26 02:27:36;;;;;;;;;;;22.50;26.50;;;;;;4832544;29;20433;-61
2022/03/26 02:30:04;;;;;;;;;;;22.50;26.50;;;;;;4837207;29;19976;-61
2022/03/26 02:32:32;;;;;;;;;;;22.50;26.50;;;;;;4837414;29;20003;-62
2022/03/26 02:34:59;;;;;;;;;;;22.50;26.50;;;;;;4837662;29;20330;-62
2022/03/26 02:37:30;;;;;;;;;;;22.50;26.50;;;;;;4837552;29;19929;-63
2022/03/26 02:39:57;;;;;;;;;;;22.40;26.50;;;;;;4836402;29;19939;-61
2022/03/26 02:42:24;;;;;;;;;;;22.50;26.60;;;;;;4836634;29;19935;-62
2022/03/26 02:44:52;;;;;;;;;;;22.40;26.50;;;;;;4837747;29;20484;-61
2022/03/26 02:47:19;;;;;;;;;;;22.50;26.60;;;;;;4836839;29;20000;-61
2022/03/26 02:49:46;;;;;;;;;;;22.50;26.60;;;;;;4837312;29;20350;-61
2022/03/26 02:52:13;;;;;;;;;;;22.40;26.60;;;;;;4837197;29;20470;-61
2022/03/26 02:54:40;;;;;;;;;;;22.50;26.60;;;;;;4837390;29;19939;-61
2022/03/26 02:57:07;;;;;;;;;;;22.50;26.60;;;;;;4837110;29;20343;-62
2022/03/26 02:59:34;;;;;;;;;;;22.40;26.60;;;;;;4831943;29;20400;-62
2022/03/26 03:02:01;;;;;;;;;;;22.40;26.60;;;;;;4837257;29;19977;-61
2022/03/26 03:04:29;;;;;;;;;;;22.40;26.60;;;;;;4836581;29;19935;-61
2022/03/26 03:06:55;;;;;;;;;;;22.40;26.60;;;;;;4837022;29;19985;-62
2022/03/26 03:09:22;;;;;;;;;;;22.40;26.60;;;;;;4836933;29;20502;-61
2022/03/26 03:11:50;;;;;;;;;;;22.40;26.60;;;;;;4837142;29;19928;-61
2022/03/26 03:14:17;;;;;;;;;;;22.40;26.60;;;;;;4836341;29;20001;-61
2022/03/26 03:16:45;;;;;;;;;;;22.40;26.60;;;;;;4835356;29;20207;-62
2022/03/26 03:19:12;;;;;;;;;;;22.40;26.60;;;;;;4836334;29;19979;-61
2022/03/26 03:21:39;;;;;;;;;;;22.40;26.60;;;;;;4836674;29;19976;-62
2022/03/26 03:24:06;;;;;;;;;;;22.40;26.60;;;;;;4836242;29;20015;-61
2022/03/26 03:26:33;;;;;;;;;;;22.40;26.60;;;;;;4836550;29;19929;-61
2022/03/26 03:29:00;;;;;;;;;;;22.40;26.60;;;;;;4834020;29;20283;-62
2022/03/26 03:31:28;;;;;;;;;;;22.40;26.60;;;;;;4832466;29;19987;-61
2022/03/26 03:33:56;;;;;;;;;;;22.40;26.50;;;;;;4836636;29;19932;-61
2022/03/26 03:36:23;;;;;;;;;;;22.40;26.60;;;;;;4836612;29;19958;-62
2022/03/26 03:38:50;;;;;;;;;;;22.40;26.50;;;;;;4836410;29;20024;-61
2022/03/26 03:41:17;;;;;;;;;;;22.40;26.50;;;;;;4836030;29;19976;-61
2022/03/26 03:43:44;;;;;;;;;;;22.40;26.50;;;;;;4836741;29;19933;-61
2022/03/26 03:46:12;;;;;;;;;;;22.40;26.60;;;;;;4835954;29;19979;-61
2022/03/26 03:48:39;;;;;;;;;;;22.40;26.60;;;;;;4836262;29;19935;-64
2022/03/26 03:51:07;;;;;;;;;;;22.40;26.60;;;;;;4836206;29;19977;-61
2022/03/26 03:53:35;;;;;;;;;;;22.40;26.60;;;;;;4835205;29;19936;-62
2022/03/26 03:56:02;;;;;;;;;;;22.40;26.70;;;;;;4836445;29;20023;-62
2022/03/26 03:58:29;;;;;;;;;;;22.40;26.70;;;;;;4836494;29;19932;-61
2022/03/26 04:01:01;;;;;;;;;;;22.40;26.70;;;;;;4831804;29;19928;-61
2022/03/26 04:03:29;;;;;;;;;;;22.40;26.70;;;;;;4835778;29;20353;-61
2022/03/26 04:05:58;;;;;;;;;;;22.40;26.80;;;;;;4836126;29;19945;-61
2022/03/26 04:08:25;;;;;;;;;;;22.40;26.80;;;;;;4836655;29;19928;-61
2022/03/26 04:10:52;;;;;;;;;;;22.40;26.80;;;;;;4835397;29;19990;-61
2022/03/26 04:13:19;;;;;;;;;;;22.40;26.90;;;;;;4836617;29;20289;-61
2022/03/26 04:15:47;;;;;;;;;;;22.40;26.90;;;;;;4835642;29;20015;-61
2022/03/26 04:18:14;;;;;;;;;;;22.40;26.90;;;;;;4835016;29;19945;-61
2022/03/26 04:20:41;;;;;;;;;;;22.40;27.00;;;;;;4834276;29;19932;-62
2022/03/26 04:23:08;;;;;;;;;;;22.40;27.00;;;;;;4836289;29;19975;-62
2022/03/26 04:25:35;;;;;;;;;;;22.30;27.00;;;;;;4835655;29;20378;-62
2022/03/26 04:28:02;;;;;;;;;;;22.30;26.90;;;;;;4835954;29;20398;-62
2022/03/26 04:30:29;;;;;;;;;;;22.30;26.90;;;;;;4835696;29;20457;-62
2022/03/26 04:32:56;;;;;;;;;;;22.30;26.90;;;;;;4831566;29;19928;-62
2022/03/26 04:35:23;;;;;;;;;;;22.30;26.90;;;;;;4834793;29;20329;-62
2022/03/26 04:37:55;;;;;;;;;;;22.30;26.90;;;;;;4836478;29;19958;-62
2022/03/26 04:40:26;;;;;;;;;;;22.30;26.90;;;;;;4835601;29;19929;-62
2022/03/26 04:42:53;;;;;;;;;;;22.30;27.00;;;;;;4835539;29;20028;-62
2022/03/26 04:45:20;;;;;;;;;;;22.30;27.00;;;;;;4836130;29;19968;-62
2022/03/26 04:47:47;;;;;;;;;;;22.30;27.00;;;;;;4835841;29;20022;-62
2022/03/26 04:50:14;;;;;;;;;;;22.30;27.00;;;;;;4835666;29;19979;-62
2022/03/26 04:52:41;;;;;;;;;;;22.30;27.00;;;;;;4835507;29;19963;-62
2022/03/26 04:55:09;;;;;;;;;;;22.30;27.00;;;;;;4835969;29;19976;-62
2022/03/26 04:57:40;;;;;;;;;;;22.30;27.00;;;;;;4835487;29;20409;-62
2022/03/26 05:00:09;;;;;;;;;;;22.30;27.00;;;;;;4835354;29;20027;-62
2022/03/26 05:02:39;;;;;;;;;;;22.30;26.90;;;;;;4835625;29;20376;-62
2022/03/26 05:05:07;;;;;;;;;;;22.30;26.90;;;;;;4832230;29;19928;-62
2022/03/26 05:07:46;;;;;;;;;;;22.30;26.90;;;;;;4838633;29;20326;-62
2022/03/26 05:10:16;;;;;;;;;;;22.30;26.90;;;;;;4838781;29;20051;-62
2022/03/26 05:12:44;;;;;;;;;;;22.40;27.00;;;;;;4838730;29;20009;-62
2022/03/26 05:15:12;;;;;;;;;;;22.40;27.00;;;;;;4838923;29;19932;-62
2022/03/26 05:17:39;;;;;;;;;;;22.40;26.90;;;;;;4838473;29;20023;-62
2022/03/26 05:20:06;;;;;;;;;;;22.40;26.90;;;;;;4834999;29;19932;-62
2022/03/26 05:22:33;;;;;;;;;;;22.40;26.90;;;;;;4835959;29;20050;-62
2022/03/26 05:25:00;;;;;;;;;;;22.40;26.90;;;;;;4836422;29;20384;-62
2022/03/26 05:27:27;;;;;;;;;;;22.40;26.90;;;;;;4836162;29;19928;-62
2022/03/26 05:29:54;;;;;;;;;;;22.40;26.80;;;;;;4838469;29;19928;-62
2022/03/26 05:32:21;;;;;;;;;;;22.50;26.80;;;;;;4838620;29;19933;-62
2022/03/26 05:34:50;;;;;;;;;;;22.40;26.80;;;;;;4836619;29;20519;-63
2022/03/26 05:37:19;;;;;;;;;;;22.50;26.80;;;;;;4835366;29;20059;-62
2022/03/26 05:39:46;;;;;;;;;;;22.50;26.80;;;;;;4838548;29;19928;-63
2022/03/26 05:42:13;;;;;;;;;;;22.50;26.80;;;;;;4835877;29;19968;-64
2022/03/26 05:44:40;;;;;;;;;;;22.50;26.70;;;;;;4836116;29;20019;-62
2022/03/26 05:47:07;;;;;;;;;;;22.50;26.70;;;;;;4832239;29;20024;-63
2022/03/26 05:49:35;;;;;;;;;;;22.50;26.70;;;;;;4836682;29;19933;-62
2022/03/26 05:52:02;;;;;;;;;;;22.50;26.70;;;;;;4838489;29;19982;-62
2022/03/26 05:54:28;;;;;;;;;;;22.50;27.10;;;;;;4833497;29;19933;-63
2022/03/26 05:56:55;;;;;;;;;;;22.50;26.70;;;;;;4837052;29;19932;-62
2022/03/26 05:59:23;;;;;;;;;;;22.60;26.70;;;;;;4838197;29;20014;-62
2022/03/26 06:01:51;;;;;;;;;;;22.50;26.60;;;;;;4835977;29;20446;-62
2022/03/26 06:04:18;;;;;;;;;;;22.60;26.70;;;;;;4836441;29;19932;-63
2022/03/26 06:06:47;;;;;;;;;;;22.60;26.60;;;;;;4825896;29;19993;-62
2022/03/26 06:09:14;;;;;;;;;;;22.60;26.60;;;;;;4818454;29;19976;-62
2022/03/26 06:11:41;;;;;;;;;;;22.60;26.50;;;;;;4819601;29;19972;-62
2022/03/26 06:14:09;;;;;;;;;;;22.60;26.40;;;;;;4819928;29;20303;-63
2022/03/26 06:16:36;;;;;;;;;;;22.60;26.40;;;;;;4817831;29;20016;-63
2022/03/26 06:19:03;;;;;;;;;;;22.60;26.40;;;;;;4830570;29;20593;-61
2022/03/26 06:21:30;;;;;;;;;;;22.60;26.40;;;;;;4829163;29;19928;-62
2022/03/26 06:23:58;;;;;;;;;;;22.60;26.40;;;;;;4831254;29;19933;-62
2022/03/26 06:26:26;;;;;;;;;;;22.60;26.40;;;;;;4829001;29;20015;-62
2022/03/26 06:28:53;;;;;;;;;;;22.70;26.40;;;;;;4840276;29;20462;-62
2022/03/26 06:31:20;;;;;;;;;;;22.70;26.40;;;;;;4836421;29;20387;-63
2022/03/26 06:33:47;;;;;;;;;;;22.80;26.40;;;;;;4837452;29;19949;-62
2022/03/26 06:36:14;;;;;;;;;;;22.80;26.30;;;;;;4835414;29;19983;-61
2022/03/26 06:38:41;;;;;;;;;;;22.90;26.70;;;;;;4832367;29;19929;-61
2022/03/26 06:41:09;;;;;;;;;;;22.90;27.10;;;;;;4834068;29;19932;-62
2022/03/26 06:43:37;;;;;;;;;;;23.00;26.80;;;;;;4837865;29;19975;-63
2022/03/26 06:46:04;;;;;;;;;;;23.10;26.50;;;;;;4830007;29;20019;-62
2022/03/26 06:48:32;;;;;;;;;;;23.20;26.40;;;;;;4829100;29;20334;-63
2022/03/26 06:51:00;;;;;;;;;;;23.20;26.30;;;;;;4827292;29;21601;-62
2022/03/26 06:53:28;;;;;;;;;;;23.30;26.30;;;;;;4846938;29;19932;-62
2022/03/26 06:55:55;;;;;;;;;;;23.30;26.20;;;;;;4826464;29;19928;-62
2022/03/26 06:58:22;;;;;;;;;;;23.40;26.10;;;;;;4825090;29;19977;-60
2022/03/26 07:00:50;;;;;;;;;;;23.50;26.10;;;;;;4827933;29;20071;-60
2022/03/26 07:03:17;;;;;;;;;;;23.50;26.30;;;;;;4826379;29;19991;-60
2022/03/26 07:05:46;;;;;;;;;;;23.60;26.40;;;;;;4831170;29;19955;-60
2022/03/26 07:08:13;;;;;;;;;;;23.60;26.50;;;;;;4831769;29;20031;-61
2022/03/26 07:10:44;;;;;;;;;;;23.60;26.50;;;;;;4825164;29;19929;-60
2022/03/26 07:13:12;;;;;;;;;;;23.70;26.50;;;;;;4841248;29;19933;-61
2022/03/26 07:15:39;;;;;;;;;;;23.80;26.50;;;;;;4820986;29;19940;-61
2022/03/26 07:18:07;;;;;;;;;;;23.80;26.20;;;;;;4824292;29;19928;-61
2022/03/26 07:20:33;;;;;;;;;;;23.90;26.00;;;;;;4828221;29;20394;-61
2022/03/26 07:23:01;;;;;;;;;;;24.00;26.00;;;;;;4829734;29;20325;-60
2022/03/26 07:25:29;;;;;;;;;;;24.10;26.00;;;;;;4828490;29;20447;-60
2022/03/26 07:27:56;;;;;;;;;;;24.20;26.00;;;;;;4827677;29;20056;-62
2022/03/26 07:30:23;;;;;;;;;;;24.30;25.90;;;;;;4830557;29;20039;-61
2022/03/26 07:32:50;;;;;;;;;;;24.30;25.90;;;;;;4832634;29;19933;-61
2022/03/26 07:35:17;;;;;;;;;;;24.40;26.00;;;;;;4837123;29;19932;-63
2022/03/26 07:37:44;;;;;;;;;;;24.40;25.90;;;;;;4826372;29;19928;-62
2022/03/26 07:40:13;;;;;;;;;;;24.40;25.90;;;;;;4829297;29;20326;-62
2022/03/26 07:42:41;;;;;;;;;;;24.50;25.90;;;;;;4827524;29;20043;-61
2022/03/26 07:45:08;;;;;;;;;;;24.50;25.80;;;;;;4827686;29;19936;-62
2022/03/26 07:47:36;;;;;;;;;;;24.60;25.90;;;;;;4828736;29;20023;-62
2022/03/26 07:50:04;;;;;;;;;;;24.60;25.80;;;;;;4827508;29;19972;-60
2022/03/26 07:52:32;;;;;;;;;;;24.70;25.70;;;;;;4823064;29;20406;-61
2022/03/26 07:54:58;;;;;;;;;;;24.80;25.80;;;;;;4827263;29;20362;-62
2022/03/26 07:57:26;;;;;;;;;;;24.80;25.80;;;;;;4824203;29;19929;-63
2022/03/26 07:59:54;;;;;;;;;;;24.90;25.80;;;;;;4826756;29;19936;-62
2022/03/26 08:02:21;;;;;;;;;;;24.90;25.70;;;;;;4823135;29;20047;-61
2022/03/26 08:04:48;;;;;;;;;;;24.90;25.50;;;;;;4826283;29;19936;-62
2022/03/26 08:07:15;;;;;;;;;;;25.00;25.60;;;;;;4827138;29;20031;-65
2022/03/26 08:09:42;;;;;;;;;;;25.00;25.50;;;;;;4824917;29;20031;-66
2022/03/26 08:12:10;;;;;;;;;;;25.00;25.40;;;;;;4823797;29;20419;-64
2022/03/26 08:14:37;;;;;;;;;;;25.10;25.40;;;;;;4826032;29;19936;-63
2022/03/26 08:17:06;;;;;;;;;;;25.10;25.40;;;;;;4825650;29;19997;-63
2022/03/26 08:19:34;;;;;;;;;;;25.20;25.30;;;;;;4828228;29;20423;-63
2022/03/26 08:22:02;;;;;;;;;;;25.20;25.20;;;;;;4829950;29;20023;-63
2022/03/26 08:24:30;;;;;;;;;;;25.20;25.20;;;;;;4826411;29;20283;-63
2022/03/26 08:26:57;;;;;;;;;;;25.30;25.20;;;;;;4827450;29;19941;-64
2022/03/26 08:29:24;;;;;;;;;;;25.30;25.20;;;;;;4825368;29;19977;-64
2022/03/26 08:31:51;;;;;;;;;;;25.30;25.10;;;;;;4828556;29;19993;-62
2022/03/26 08:34:18;;;;;;;;;;;25.40;25.10;;;;;;4830012;29;20430;-62
2022/03/26 08:36:45;;;;;;;;;;;25.40;25.00;;;;;;4828652;29;19929;-62
2022/03/26 08:39:12;;;;;;;;;;;25.40;25.00;;;;;;4827526;29;19979;-63
2022/03/26 08:41:39;;;;;;;;;;;25.50;25.00;;;;;;4830766;29;20293;-64
2022/03/26 08:44:06;;;;;;;;;;;25.50;24.90;;;;;;4829877;29;20448;-64
2022/03/26 08:46:34;;;;;;;;;;;25.50;24.90;;;;;;4832214;29;20019;-64
2022/03/26 08:49:02;;;;;;;;;;;25.60;24.80;;;;;;4830872;29;19936;-64
2022/03/26 08:51:29;;;;;;;;;;;25.60;24.80;;;;;;4829034;29;20016;-67
2022/03/26 08:53:56;;;;;;;;;;;25.60;24.70;;;;;;4828470;29;20028;-65
2022/03/26 08:56:23;;;;;;;;;;;25.70;24.70;;;;;;4835688;29;20028;-65
2022/03/26 08:58:51;;;;;;;;;;;25.70;24.60;;;;;;4833518;29;20023;-64
2022/03/26 09:01:19;;;;;;;;;;;25.70;24.60;;;;;;4833615;29;20044;-65
2022/03/26 09:03:50;;;;;;;;;;;25.70;24.60;;;;;;4828747;29;20027;-65
2022/03/26 09:06:17;;;;;;;;;;;25.80;24.70;;;;;;4828820;29;19952;-64
2022/03/26 09:08:44;;;;;;;;;;;25.80;24.70;;;;;;4829599;29;19939;-64
2022/03/26 09:11:12;;;;;;;;;;;25.80;24.70;;;;;;4833660;29;19978;-63
2022/03/26 09:13:39;;;;;;;;;;;25.80;24.80;;;;;;4833545;29;20027;-64
2022/03/26 09:16:06;;;;;;;;;;;25.80;24.70;;;;;;4826225;29;20649;-63
2022/03/26 09:18:33;;;;;;;;;;;25.80;24.80;;;;;;4833494;29;19932;-63
2022/03/26 09:21:01;;;;;;;;;;;25.70;24.80;;;;;;4834173;29;19964;-63
2022/03/26 09:23:32;;;;;;;;;;;25.70;24.70;;;;;;4830022;29;19942;-63
2022/03/26 09:26:00;;;;;;;;;;;25.70;24.70;;;;;;4824875;29;19936;-63
2022/03/26 09:28:27;;;;;;;;;;;25.70;24.60;;;;;;4830839;29;19929;-64
2022/03/26 09:30:54;;;;;;;;;;;25.70;24.70;;;;;;4830133;29;19967;-62
2022/03/26 09:33:21;;;;;;;;;;;25.70;24.60;;;;;;4832819;29;19982;-63
2022/03/26 09:35:48;;;;;;;;;;;25.70;24.60;;;;;;4831589;29;20072;-65
2022/03/26 09:38:15;;;;;;;;;;;25.70;24.60;;;;;;4826287;29;19929;-66
2022/03/26 09:40:43;;;;;;;;;;;25.70;24.60;;;;;;4830304;29;20362;-62
2022/03/26 09:43:12;;;;;;;;;;;25.70;24.60;;;;;;4831401;29;19932;-63
2022/03/26 09:45:39;;;;;;;;;;;25.70;24.60;;;;;;4837177;29;20429;-62
2022/03/26 09:48:07;;;;;;;;;;;25.70;24.50;;;;;;4830478;29;19977;-63
2022/03/26 09:50:34;;;;;;;;;;;25.70;24.40;;;;;;4823568;29;19963;-63
2022/03/26 09:53:01;;;;;;;;;;;25.70;24.30;;;;;;4831377;29;19997;-63
2022/03/26 09:55:30;;;;;;;;;;;25.70;24.30;;;;;;4827256;29;19977;-62
2022/03/26 09:57:58;;;;;;;;;;;25.70;24.40;;;;;;4833108;29;19968;-62
2022/03/26 10:00:25;;;;;;;;;;;25.70;24.40;;;;;;4837391;29;20326;-62
2022/03/26 10:02:52;;;;;;;;;;;25.70;24.40;;;;;;4830480;29;19964;-62
2022/03/26 10:05:19;;;;;;;;;;;25.70;24.30;;;;;;4845769;29;19937;-62
2022/03/26 10:07:48;;;;;;;;;;;25.70;24.20;;;;;;4825718;29;19979;-62
2022/03/26 10:10:23;;;;;;;;;;;25.70;24.30;;;;;;4827166;29;20021;-65
2022/03/26 10:12:51;;;;;;;;;;;25.60;24.20;;;;;;4828558;29;19933;-65
2022/03/26 10:15:18;;;;;;;;;;;25.60;24.40;;;;;;4826216;29;20066;-65
2022/03/26 10:17:46;;;;;;;;;;;25.60;24.60;;;;;;4828869;29;19932;-65
2022/03/26 10:20:14;;;;;;;;;;;25.60;24.60;;;;;;4824098;29;20019;-65
2022/03/26 10:22:43;;;;;;;;;;;25.60;24.60;;;;;;4831665;29;20458;-63
2022/03/26 10:25:12;;;;;;;;;;;25.60;24.60;;;;;;4828941;29;20000;-66
2022/03/26 10:27:40;;;;;;;;;;;25.60;24.60;;;;;;4828398;29;20482;-64
2022/03/26 10:30:13;;;;;;;;;;;25.60;24.50;;;;;;4828718;29;20291;-64
2022/03/26 10:32:45;;;;;;;;;;;25.60;24.40;;;;;;4828216;29;19985;-64
2022/03/26 10:35:15;;;;;;;;;;;25.60;24.30;;;;;;4823485;29;19985;-65
2022/03/26 10:37:44;;;;;;;;;;;25.60;24.30;;;;;;4825186;29;20002;-64
2022/03/26 10:40:15;;;;;;;;;;;25.70;24.40;;;;;;4827290;29;20029;-64
2022/03/26 10:42:43;;;;;;;;;;;25.70;24.50;;;;;;4827095;29;20699;-63
2022/03/26 10:45:13;;;;;;;;;;;25.70;24.40;;;;;;4826757;29;19976;-62
2022/03/26 10:47:40;;;;;;;;;;;25.70;24.30;;;;;;4825409;29;20057;-62
2022/03/26 10:50:12;;;;;;;;;;;25.70;24.30;;;;;;4827243;29;20358;-64
2022/03/26 10:52:40;;;;;;;;;;;25.70;24.40;;;;;;4824025;29;20024;-64
2022/03/26 10:55:12;;;;;;;;;;;25.70;24.40;;;;;;4828817;29;20015;-63
2022/03/26 10:57:40;;;;;;;;;;;25.70;24.40;;;;;;4829285;29;20012;-64
2022/03/26 11:00:08;;;;;;;;;;;25.70;24.30;;;;;;4831384;29;19979;-64
2022/03/26 11:02:35;;;;;;;;;;;25.70;24.20;;;;;;4820976;29;20032;-64
2022/03/26 11:05:03;;;;;;;;;;;25.70;24.10;;;;;;4825405;29;19928;-64
2022/03/26 11:07:30;;;;;;;;;;;25.70;24.00;;;;;;4825742;29;19940;-65
2022/03/26 11:09:59;;;;;;;;;;;25.70;24.00;;;;;;4827561;29;20366;-61
2022/03/26 11:12:27;;;;;;;;;;;25.70;24.00;;;;;;4833112;29;20367;-61
2022/03/26 11:14:55;;;;;;;;;;;25.70;24.00;;;;;;4831506;29;19932;-62
2022/03/26 11:17:42;;;;;;;;;;;25.70;24.00;;;;;;4824917;29;20135;-63
2022/03/26 11:20:29;;;;;;;;;;;25.80;24.00;;;;;;4843447;29;20007;-64
2022/03/26 11:23:16;;;;;;;;;;;25.80;23.90;;;;;;4845697;29;19928;-64
2022/03/26 11:25:53;;;;;;;;;;;25.80;23.90;;;;;;4837975;29;19964;-62
2022/03/26 11:28:31;;;;;;;;;;;25.70;23.80;;;;;;4837422;29;19971;-62
2022/03/26 11:31:07;;;;;;;;;;;25.80;23.90;;;;;;4834560;29;19982;-63
2022/03/26 11:33:36;;;;;;;;;;;25.70;23.80;;;;;;4835574;29;19940;-62
2022/03/26 11:36:05;;;;;;;;;;;25.70;23.80;;;;;;4836134;29;19935;-62
2022/03/26 11:38:32;;;;;;;;;;;25.70;23.90;;;;;;4836364;29;19928;-62
2022/03/26 11:41:04;;;;;;;;;;;25.70;24.20;;;;;;4835796;29;19964;-62
2022/03/26 11:43:50;;;;;;;;;;;25.70;24.50;;;;;;4835998;29;20386;-62
2022/03/26 11:52:14;;;;;;;;;;;25.70;24.90;;;;;;4835637;29;19987;-61
2022/03/26 11:54:41;;;;;;;;;;;25.70;24.80;;;;;;4821191;29;19928;-60
2022/03/26 11:57:14;;;;;;;;;;;25.70;24.80;;;;;;4834226;29;20019;-61
2022/03/26 11:59:44;;;;;;;;;;;25.70;24.60;;;;;;4835651;29;19953;-61
2022/03/26 12:02:18;;;;;;;;;;;25.70;24.50;;;;;;4835630;29;20310;-60
2022/03/26 12:04:47;;;;;;;;;;;25.80;24.50;;;;;;4835582;29;19983;-60
2022/03/26 12:07:15;;;;;;;;;;;25.70;24.30;;;;;;4835458;29;20374;-62
2022/03/26 12:09:42;;;;;;;;;;;25.80;24.30;;;;;;4835197;29;19979;-64
2022/03/26 12:12:16;;;;;;;;;;;25.80;24.20;;;;;;4836130;29;20356;-61
2022/03/26 12:15:03;;;;;;;;;;;25.80;24.30;;;;;;4838194;29;19967;-62
2022/03/26 12:17:47;;;;;;;;;;;25.80;24.20;;;;;;4838696;29;19989;-64
2022/03/26 12:20:23;;;;;;;;;;;25.80;24.10;;;;;;4839308;29;20438;-64
2022/03/26 12:23:04;;;;;;;;;;;25.80;24.50;;;;;;4839981;29;20019;-64
2022/03/26 12:25:36;;;;;;;;;;;25.80;25.30;;;;;;4834947;29;20485;-64
2022/03/26 12:28:04;;;;;;;;;;;25.80;25.20;;;;;;4839355;29;19985;-65
2022/03/26 12:30:31;;;;;;;;;;;25.80;24.90;;;;;;4838054;29;20020;-64
2022/03/26 12:33:06;;;;;;;;;;;25.80;24.70;;;;;;4837930;29;19993;-64
2022/03/26 12:35:33;;;;;;;;;;;25.80;24.50;;;;;;4839779;29;19929;-63
2022/03/26 12:38:02;;;;;;;;;;;25.80;24.40;;;;;;4839231;29;19978;-63
2022/03/26 12:40:29;;;;;;;;;;;25.80;24.30;;;;;;4839279;29;19932;-63
2022/03/26 12:42:56;;;;;;;;;;;25.80;24.20;;;;;;4839359;29;20019;-64
2022/03/26 12:45:23;;;;;;;;;;;25.80;24.00;;;;;;4839362;29;20007;-63
2022/03/26 12:47:50;;;;;;;;;;;25.80;24.00;;;;;;4838729;29;20408;-64
2022/03/26 12:50:19;;;;;;;;;;;25.80;23.90;;;;;;4838838;29;20402;-64
2022/03/26 12:52:46;;;;;;;;;;;25.80;23.90;;;;;;4839344;29;20417;-64
2022/03/26 12:55:13;;;;;;;;;;;25.80;23.90;;;;;;4838641;29;19975;-64
2022/03/26 13:00:28;;;;;;;;;;;25.80;23.80;;;;;;4850355;29;19983;-64
2022/03/26 13:03:02;;;;;;;;;;;25.80;23.70;;;;;;4838602;29;19935;-64
2022/03/26 13:05:31;;;;;;;;;;;25.80;23.60;;;;;;4839291;29;20205;-64
2022/03/26 13:07:58;;;;;;;;;;;25.80;23.70;;;;;;4837680;29;19964;-64
2022/03/26 13:10:30;;;;;;;;;;;25.80;23.60;;;;;;4838003;29;20022;-64
2022/03/26 13:12:57;;;;;;;;;;;25.80;23.50;;;;;;4838846;29;19929;-64
2022/03/26 13:15:24;;;;;;;;;;;25.80;23.50;;;;;;4839180;29;19967;-63
2022/03/26 13:17:55;;;;;;;;;;;25.80;23.50;;;;;;4838705;29;20557;-64
2022/03/26 13:20:26;;;;;;;;;;;25.80;23.50;;;;;;4838406;29;19962;-63
2022/03/26 13:22:56;;;;;;;;;;;25.80;23.40;;;;;;4839644;29;20418;-63
2022/03/26 13:25:24;;;;;;;;;;;25.80;23.40;;;;;;4838051;29;19985;-64
2022/03/26 13:27:51;;;;;;;;;;;25.80;23.40;;;;;;4839062;29;19957;-63
2022/03/26 13:30:18;;;;;;;;;;;25.80;23.40;;;;;;4833521;29;20019;-64
2022/03/26 13:32:45;;;;;;;;;;;25.80;23.40;;;;;;4838670;29;19985;-63
2022/03/26 13:35:13;;;;;;;;;;;25.80;23.40;;;;;;4837913;29;19932;-63
2022/03/26 13:37:44;;;;;;;;;;;25.80;23.40;;;;;;4838454;29;19964;-64
2022/03/26 13:40:11;;;;;;;;;;;25.80;23.50;;;;;;4838279;29;19929;-64
2022/03/26 13:42:43;;;;;;;;;;;25.80;23.50;;;;;;4837607;29;20159;-63
2022/03/26 13:45:10;;;;;;;;;;;25.80;23.50;;;;;;4838305;29;20023;-62
2022/03/26 13:47:37;;;;;;;;;;;25.80;23.60;;;;;;4838336;29;20023;-63
2022/03/26 13:50:06;;;;;;;;;;;25.80;23.60;;;;;;4838180;29;19974;-63
2022/03/26 13:52:35;;;;;;;;;;;25.80;24.10;;;;;;4838335;29;19968;-62
2022/03/26 13:55:19;;;;;;;;;;;25.80;23.60;;;;;;4838255;29;20017;-62
2022/03/26 13:57:49;;;;;;;;;;;25.80;23.60;;;;;;4838566;29;20015;-62
2022/03/26 14:00:16;;;;;;;;;;;25.80;23.60;;;;;;4833466;29;20438;-63
2022/03/26 14:02:43;;;;;;;;;;;25.80;23.50;;;;;;4837975;29;19984;-62
2022/03/26 14:05:18;;;;;;;;;;;25.80;23.50;;;;;;4837516;29;19977;-62
2022/03/26 14:07:47;;;;;;;;;;;25.80;23.50;;;;;;4851740;29;20347;-62
2022/03/26 14:10:14;;;;;;;;;;;25.80;23.40;;;;;;4837664;29;20366;-62
2022/03/26 14:12:41;;;;;;;;;;;25.80;23.40;;;;;;4838054;29;20019;-62
2022/03/26 14:15:08;;;;;;;;;;;25.80;23.40;;;;;;4837871;29;20159;-63
2022/03/26 14:17:35;;;;;;;;;;;25.80;23.40;;;;;;4838253;29;20040;-62
2022/03/26 14:20:03;;;;;;;;;;;25.80;23.40;;;;;;4837258;29;20023;-62
2022/03/26 14:22:30;;;;;;;;;;;25.80;23.40;;;;;;4838351;29;19932;-62
2022/03/26 14:24:58;;;;;;;;;;;25.80;23.40;;;;;;4837195;29;20160;-62
2022/03/26 14:27:25;;;;;;;;;;;25.80;23.40;;;;;;4837766;29;20385;-62
2022/03/26 14:29:52;;;;;;;;;;;25.80;23.40;;;;;;4837241;29;20441;-62